Strona główna
Zdjęcia satelitarne 15-dni prognozyKlimatMeteorologia morska Cyklony Błyskawica LotniskoFAQ Gazetka O
Pogoda : Europa Afryka Ameryka Północna Ameryka Południowa Azja Australia-Oceania Inny
Języki Kontakt

Kraków, Polska

Balice

Szerokość geograficzna: 50-05N, Długość geograficzna: 019-48E, wysokość: 237 m


METAR: EPKK 160430Z 06005KT CAVOK 11/09 Q1020
short-TAF: przestarzały (32398 godziny)
long-TAF: EPKK 151730Z 1518/1618 06008KT CAVOK

czas: 06:52 (04:52 UTC)

Aktualna obserwacja pogody

Raport powstał 22 minut temu, godzina 04:30 UTC  
Wiatr 05 kt od wschodnio-północny wschód
Temperatura 11°C
Wilgotność 87%
Ciśnienie 1020 hPa
Widzialność 10 km lub więcej
Brak chmur poniżej 1500 m i brak chmur cumulonimbus

Jednostka miary

Prognoza

Raport powstał 11 godziny i 16 minut temu, godzina 17:36 UTC  
Prognoza ważna od 15 godzina 18 UTC do 16 godzina 18 UTC
Wiatr 08 kt od wschodnio-północny wschód
Widzialność 10 km lub więcej
Brak chmur poniżej 1500 m i brak chmur cumulonimbus
Informacje na tej stronie internetowej podlegają klauzuli o wyłączeniu odpowiedzialności
Pogoda : Europa Afryka Ameryka Północna Ameryka Południowa Azja Australia-Oceania Inny
Zdjęcia satelitarne 15-dni prognozyKlimatMeteorologia morska Cyklony Błyskawica LotniskoFAQ Języki Kontakt Gazetka O